createdAt,value
2019-05-01T00:04:45.741Z,13.50
2019-05-01T00:14:55.383Z,13.60
2019-05-01T00:25:04.271Z,13.40
2019-05-01T00:30:11.221Z,13.20
2019-05-01T00:35:15.775Z,13.20
2019-05-01T01:01:06.142Z,13.10
2019-05-01T01:06:11.292Z,13.20
2019-05-01T01:11:16.011Z,12.90
2019-05-01T01:16:20.618Z,12.80
2019-05-01T01:21:30.720Z,12.90
2019-05-01T01:26:35.500Z,12.90
2019-05-01T01:31:40.329Z,13.00
2019-05-01T01:36:44.963Z,12.90
2019-05-01T01:41:50.293Z,12.80
2019-05-01T01:46:56.193Z,12.60
2019-05-01T01:52:01.371Z,12.60
2019-05-01T01:57:06.076Z,12.40
2019-05-01T02:02:42.055Z,12.40
2019-05-01T02:07:46.824Z,12.40
2019-05-01T02:12:51.659Z,12.40
2019-05-01T02:17:59.831Z,12.40
2019-05-01T02:23:04.505Z,12.20
2019-05-01T02:28:34.440Z,12.10
2019-05-01T02:33:42.157Z,12.10
2019-05-01T02:38:50.808Z,12.20
2019-05-01T02:44:00.299Z,12.40
2019-05-01T02:49:09.932Z,12.30
2019-05-01T02:54:19.233Z,12.30
2019-05-01T02:59:26.892Z,12.30
2019-05-01T03:04:33.094Z,12.30
2019-05-01T03:14:46.333Z,12.40
2019-05-01T03:20:02.863Z,12.10
2019-05-01T03:25:08.296Z,12.30
2019-05-01T03:45:28.383Z,11.90
2019-05-01T03:55:37.726Z,12.10
2019-05-01T04:06:06.008Z,12.40
2019-05-01T04:11:11.191Z,12.40
2019-05-01T04:16:16.905Z,12.30
2019-05-01T04:21:23.739Z,12.30
2019-05-01T04:31:44.124Z,12.00
2019-05-01T04:36:52.281Z,11.90
2019-05-01T04:41:57.154Z,11.70
2019-05-01T04:47:03.742Z,11.60
2019-05-01T04:57:12.577Z,12.40
2019-05-01T05:02:23.494Z,12.40
2019-05-01T05:07:28.828Z,12.30
2019-05-01T05:12:47.980Z,12.50
2019-05-01T05:38:23.439Z,12.60
2019-05-01T05:43:31.091Z,12.70
2019-05-01T05:53:44.239Z,12.60
2019-05-01T05:58:55.514Z,12.70
2019-05-01T06:10:03.107Z,12.40
2019-05-01T06:15:36.537Z,12.60
2019-05-01T06:21:12.912Z,12.80
2019-05-01T06:26:37.403Z,13.00
2019-05-01T06:31:39.067Z,12.80
2019-05-01T06:36:49.717Z,13.00
2019-05-01T06:41:53.664Z,12.80
2019-05-01T06:47:11.844Z,13.00
2019-05-01T06:52:25.067Z,13.20
2019-05-01T06:57:28.719Z,12.90
2019-05-01T07:02:35.000Z,13.10
2019-05-01T07:07:43.019Z,13.20
2019-05-01T07:12:47.288Z,13.30
2019-05-01T07:17:52.433Z,13.00
2019-05-01T07:22:57.314Z,12.80
2019-05-01T07:28:01.906Z,13.10
2019-05-01T07:33:06.598Z,13.40
2019-05-01T07:38:11.712Z,13.50
2019-05-01T07:43:26.594Z,13.50
2019-05-01T07:48:36.022Z,13.60
2019-05-01T07:53:42.279Z,13.30
2019-05-01T07:58:51.585Z,13.60
2019-05-01T08:03:53.642Z,13.60
2019-05-01T08:08:58.384Z,13.80
2019-05-01T08:14:16.617Z,13.80
2019-05-01T08:19:47.223Z,13.80
2019-05-01T08:24:53.876Z,13.90
2019-05-01T08:30:26.462Z,14.00
2019-05-01T08:35:36.408Z,14.10
2019-05-01T08:40:40.558Z,14.00
2019-05-01T08:46:16.538Z,14.10
2019-05-01T08:51:20.764Z,14.20
2019-05-01T08:56:32.998Z,14.00
2019-05-01T09:01:39.516Z,14.20
2019-05-01T09:06:45.873Z,14.30
2019-05-01T09:11:54.647Z,14.10
2019-05-01T09:16:59.535Z,13.20
2019-05-01T09:22:04.633Z,13.30
2019-05-01T09:27:31.152Z,13.50
2019-05-01T09:32:36.335Z,14.20
2019-05-01T09:37:40.811Z,14.60
2019-05-01T09:42:45.479Z,15.00
2019-05-01T09:47:50.544Z,15.00
2019-05-01T09:53:34.213Z,14.40
2019-05-01T09:58:39.142Z,14.30
2019-05-01T10:03:44.960Z,14.90
2019-05-01T10:08:49.649Z,15.30
2019-05-01T10:13:58.449Z,15.50
2019-05-01T10:19:00.432Z,15.70
2019-05-01T10:24:05.212Z,15.80
2019-05-01T10:29:32.467Z,16.10
2019-05-01T10:34:59.693Z,16.10
2019-05-01T10:40:05.648Z,16.10
2019-05-01T10:45:10.471Z,15.40
2019-05-01T10:50:15.131Z,16.20
2019-05-01T10:55:20.270Z,16.40
2019-05-01T11:00:25.146Z,16.70
2019-05-01T11:05:29.723Z,16.80
2019-05-01T11:10:34.171Z,16.70
2019-05-01T11:15:38.742Z,16.70
2019-05-01T11:20:43.324Z,17.00
2019-05-01T11:25:47.958Z,17.00
2019-05-01T11:30:54.079Z,17.40
2019-05-01T11:36:40.713Z,17.00
2019-05-01T11:48:05.520Z,17.40
2019-05-01T11:53:10.214Z,17.40
2019-05-01T11:58:14.719Z,17.10
2019-05-01T12:03:19.421Z,17.40
2019-05-01T12:08:23.987Z,17.70
2019-05-01T12:13:28.667Z,17.80
2019-05-01T12:18:33.246Z,18.00
2019-05-01T12:23:38.056Z,18.20
2019-05-01T12:28:42.666Z,18.40
2019-05-01T12:33:50.060Z,18.20
2019-05-01T12:38:56.776Z,18.20
2019-05-01T12:44:01.660Z,18.70
2019-05-01T12:49:06.199Z,18.90
2019-05-01T12:54:54.250Z,19.00
2019-05-01T13:00:08.399Z,18.90
2019-05-01T13:05:05.844Z,18.90
2019-05-01T13:10:11.343Z,19.00
2019-05-01T13:15:19.129Z,19.20
2019-05-01T13:20:24.467Z,19.30
2019-05-01T13:25:29.303Z,19.10
2019-05-01T13:30:59.656Z,19.70
2019-05-01T13:36:04.944Z,20.40
2019-05-01T13:41:09.572Z,19.80
2019-05-01T13:46:14.211Z,19.90
2019-05-01T13:51:18.861Z,20.30
2019-05-01T13:56:24.039Z,21.40
2019-05-01T14:01:28.763Z,21.10
2019-05-01T14:06:33.454Z,20.70
2019-05-01T14:11:38.143Z,22.30
2019-05-01T14:16:42.875Z,22.90
2019-05-01T14:22:06.231Z,24.20
2019-05-01T14:27:11.041Z,23.40
2019-05-01T14:32:21.799Z,22.80
2019-05-01T14:37:29.751Z,24.20
2019-05-01T14:42:32.785Z,24.90
2019-05-01T14:47:37.322Z,25.00
2019-05-01T14:52:42.040Z,19.00
2019-05-01T14:57:46.536Z,21.10
2019-05-01T15:02:52.104Z,21.90
2019-05-01T15:07:56.843Z,21.80
2019-05-01T15:13:03.758Z,21.70
2019-05-01T15:18:30.335Z,22.20
2019-05-01T15:23:35.089Z,22.30
2019-05-01T15:28:39.887Z,23.10
2019-05-01T15:33:45.553Z,23.30
2019-05-01T15:38:51.521Z,23.20
2019-05-01T15:44:15.358Z,23.60
2019-05-01T15:49:21.732Z,22.40
2019-05-01T15:54:27.765Z,22.30
2019-05-01T15:59:33.315Z,21.70
2019-05-01T16:04:38.018Z,22.00
2019-05-01T16:09:42.731Z,22.20
2019-05-01T16:14:49.427Z,21.90
2019-05-01T16:20:00.597Z,21.30
2019-05-01T16:25:07.943Z,20.80
2019-05-01T16:30:14.495Z,20.80
2019-05-01T16:35:19.491Z,20.80
2019-05-01T16:40:44.886Z,20.40
2019-05-01T16:45:59.573Z,20.30
2019-05-01T16:51:16.952Z,19.90
2019-05-01T16:56:36.216Z,19.70
2019-05-01T17:02:12.459Z,19.50
2019-05-01T17:07:43.040Z,19.50
2019-05-01T17:12:54.099Z,19.20
2019-05-01T17:17:59.068Z,19.10
2019-05-01T17:23:05.707Z,18.90
2019-05-01T17:28:11.834Z,18.90
2019-05-01T17:33:20.643Z,18.80
2019-05-01T17:38:23.687Z,18.60
2019-05-01T17:43:31.433Z,18.60
2019-05-01T17:48:37.461Z,18.40
2019-05-01T17:53:42.404Z,18.20
2019-05-01T17:58:47.005Z,18.10
2019-05-01T18:04:11.126Z,18.00
2019-05-01T18:09:23.023Z,17.80
2019-05-01T18:20:55.682Z,17.70
2019-05-01T18:26:18.672Z,17.50
2019-05-01T18:31:35.573Z,17.40
2019-05-01T18:36:47.395Z,17.40
2019-05-01T18:42:03.403Z,17.20
2019-05-01T18:47:10.709Z,17.10
2019-05-01T18:52:29.633Z,16.90
2019-05-01T18:57:37.628Z,16.80
2019-05-01T19:02:45.014Z,16.70
2019-05-01T19:07:56.122Z,16.50
2019-05-01T19:13:07.418Z,16.20
2019-05-01T19:18:16.905Z,16.10
2019-05-01T19:23:27.904Z,15.90
2019-05-01T19:28:35.169Z,15.90
2019-05-01T19:33:41.784Z,15.60
2019-05-01T19:38:46.698Z,15.50
2019-05-01T19:43:51.275Z,15.30
2019-05-01T19:48:56.073Z,15.20
2019-05-01T19:54:01.609Z,15.20
2019-05-01T19:59:06.401Z,15.30
2019-05-01T20:04:13.076Z,15.20
2019-05-01T20:09:17.734Z,15.20
2019-05-01T20:14:22.394Z,15.10
2019-05-01T20:19:27.632Z,15.20
2019-05-01T20:24:32.414Z,15.10
2019-05-01T20:29:37.136Z,14.90
2019-05-01T20:34:47.996Z,14.90
2019-05-01T20:39:51.560Z,14.80
2019-05-01T20:45:04.331Z,14.80
2019-05-01T20:50:02.543Z,14.70
2019-05-01T20:55:07.599Z,14.50
2019-05-01T21:00:16.758Z,14.50
2019-05-01T21:05:28.314Z,14.50
2019-05-01T21:10:50.261Z,14.50
2019-05-01T21:15:48.235Z,14.40
2019-05-01T21:20:54.166Z,14.40
2019-05-01T21:25:59.051Z,14.20
2019-05-01T21:31:16.032Z,14.00
2019-05-01T21:36:24.038Z,14.10
2019-05-01T21:41:28.650Z,14.10
2019-05-01T21:46:34.105Z,14.00
2019-05-01T21:51:42.386Z,13.80
2019-05-01T21:56:45.326Z,13.90
2019-05-01T22:01:53.313Z,13.90
2019-05-01T22:06:58.242Z,13.70
2019-05-01T22:12:02.847Z,13.70
2019-05-01T22:17:17.536Z,13.70
2019-05-01T22:22:31.299Z,13.80
2019-05-01T22:27:43.653Z,13.70
2019-05-01T22:32:51.966Z,13.70
2019-05-01T22:37:57.176Z,13.70
2019-05-01T22:43:02.040Z,13.60
2019-05-01T22:48:06.945Z,13.50
2019-05-01T22:53:13.038Z,13.50
2019-05-01T22:58:18.157Z,13.50
2019-05-01T23:03:44.612Z,13.40
2019-05-01T23:08:49.439Z,13.40
2019-05-01T23:13:54.218Z,13.30
2019-05-01T23:19:00.495Z,13.30
2019-05-01T23:24:06.474Z,13.20
2019-05-01T23:29:11.075Z,13.10
2019-05-01T23:34:15.698Z,13.10
2019-05-01T23:39:20.122Z,13.10
2019-05-01T23:44:25.305Z,13.10
2019-05-01T23:49:30.699Z,13.00
2019-05-01T23:54:35.331Z,12.90
2019-05-01T23:59:39.909Z,12.90
